NCAR-RAP Real-Time Weather Data

Output produced by METARs form (12 August 2020  18:46 UTC)
found at http://weather.rap.ucar.edu/surface/
 
KRHI 121753Z AUTO 25009KT 10SM CLR 28/12 A3015 RMK AO2 SLP203 T02830122 10283 20150 51014
KRHI 121653Z AUTO VRB03KT 10SM CLR 27/13 A3013 RMK AO2 SLP199 T02720128
KRHI 121553Z AUTO 00000KT 10SM CLR 26/15 A3013 RMK AO2 SLP198 T02560150
KRHI 121453Z AUTO 08003KT 10SM CLR 24/15 A3010 RMK AO2 SLP188 T02390150 58008
KRHI 121353Z AUTO 00000KT 10SM CLR 22/15 A3012 RMK AO2 SLP193 T02220150 TSNO
KRHI 121253Z AUTO 00000KT 10SM CLR 19/14 A3013 RMK AO2 SLP201 T01890144 TSNO
KRHI 121153Z AUTO 00000KT 10SM CLR 15/13 A3013 RMK AO2 SLP198 T01500133 10167 20133 51011 TSNO
KRHI 121053Z AUTO 00000KT 10SM FEW120 14/12 A3012 RMK AO2 SLP196 T01390122 TSNO
KRHI 120953Z AUTO 00000KT 10SM CLR 14/13 A3011 RMK AO2 SLP191 T01440128 TSNO
KRHI 120853Z AUTO 00000KT 10SM CLR 14/13 A3010 RMK AO2 SLP186 T01440128 51013
KRHI 120753Z AUTO 26004KT 10SM CLR 16/13 A3009 RMK AO2 SLP180 T01610133
KRHI 120653Z AUTO 27005KT 10SM CLR 17/13 A3007 RMK AO2 SLP175 T01670133
KRHI 120553Z AUTO 25003KT 10SM CLR 14/12 A3006 RMK AO2 SLP172 T01390117 10250 20139 402830089 53009
KRHI 120453Z AUTO 24003KT 10SM CLR 14/12 A3004 RMK AO2 SLP169 T01390122
KRHI 120353Z AUTO 26003KT 10SM CLR 16/13 A3003 RMK AO2 SLP164 T01610128
KRHI 120253Z AUTO 26004KT 10SM CLR 18/13 A3003 RMK AO2 SLP164 T01780133 53011
KRHI 120153Z AUTO 24004KT 10SM CLR 19/13 A3001 RMK AO2 SLP158 T01940133
KRHI 120053Z AUTO 24004KT 10SM CLR 20/13 A3000 RMK AO2 SLP156 T02000128
KRHI 112353Z AUTO 25006KT 10SM CLR 25/11 A2999 RMK AO2 SLP153 T02500111 10283 20250 53000
KRHI 112253Z AUTO 24010KT 10SM CLR 26/10 A2999 RMK AO2 SLP152 T02610100
KRHI 112153Z AUTO 24010KT 10SM CLR 27/11 A2999 RMK AO2 SLP153 T02720106